Time;durP1;ratioP1;P1;durP2;ratioP2;P2;SDS_P1;SDS_P2;PMS_P1;PMS_P2;Temp;Humidity;BMP_temperature;BMP_pressure;BME280_temperature;BME280_humidity;BME280_pressure;Samples;Min_cycle;Max_cycle;Signal;HPM_P1;HPM_P2
2021/05/29 00:01:59;;;;;;;3.40;1.58;;;20.30;46.60;;;;;;5095262;28;20016;-61
2021/05/29 00:04:24;;;;;;;4.18;1.90;;;20.20;46.70;;;;;;5094996;28;20440;-61
2021/05/29 00:06:50;;;;;;;2.63;1.27;;;20.20;46.60;;;;;;5093567;28;20031;-61
2021/05/29 00:09:15;;;;;;;3.45;1.60;;;20.20;46.60;;;;;;5094860;28;20095;-61
2021/05/29 00:11:41;;;;;;;3.63;1.75;;;20.20;46.70;;;;;;5095054;28;20111;-61
2021/05/29 00:14:07;;;;;;;4.20;1.90;;;20.20;46.70;;;;;;5095356;28;20012;-61
2021/05/29 00:16:32;;;;;;;3.05;1.30;;;20.20;46.80;;;;;;5095055;28;20097;-61
2021/05/29 00:18:58;;;;;;;4.82;2.25;;;20.20;46.90;;;;;;5095019;28;20502;-61
2021/05/29 00:21:24;;;;;;;3.95;1.80;;;20.10;46.90;;;;;;5095142;28;20464;-61
2021/05/29 00:23:49;;;;;;;3.63;1.67;;;20.20;46.80;;;;;;5094410;28;20075;-61
2021/05/29 00:26:15;;;;;;;3.78;1.90;;;20.20;46.90;;;;;;5094966;28;20032;-61
2021/05/29 00:28:41;;;;;;;3.50;1.50;;;20.10;46.90;;;;;;5094932;28;20067;-62
2021/05/29 00:31:06;;;;;;;3.85;1.60;;;20.10;47.00;;;;;;5094452;28;20028;-62
2021/05/29 00:33:32;;;;;;;3.60;1.60;;;20.10;47.00;;;;;;5094787;28;20031;-61
2021/05/29 00:35:57;;;;;;;3.50;1.88;;;20.10;47.00;;;;;;5093352;28;20024;-62
2021/05/29 00:38:23;;;;;;;2.72;1.50;;;20.10;47.00;;;;;;5094986;28;20020;-61
2021/05/29 00:40:49;;;;;;;3.10;1.80;;;20.10;47.10;;;;;;5094868;28;20452;-62
2021/05/29 00:43:14;;;;;;;3.05;1.55;;;20.10;47.00;;;;;;5094395;28;20433;-60
2021/05/29 00:45:40;;;;;;;3.50;1.63;;;20.00;47.10;;;;;;5094361;28;20020;-61
2021/05/29 00:48:06;;;;;;;3.63;2.03;;;20.10;47.20;;;;;;5094416;28;20031;-61
2021/05/29 00:50:33;;;;;;;3.42;1.73;;;20.00;47.20;;;;;;5094464;28;20119;-61
2021/05/29 00:53:00;;;;;;;3.50;1.70;;;20.00;47.20;;;;;;5094092;28;20447;-61
2021/05/29 00:55:25;;;;;;;3.80;1.63;;;20.00;47.10;;;;;;5094429;28;20028;-61
2021/05/29 00:57:52;;;;;;;3.60;1.77;;;20.00;47.30;;;;;;5092982;28;20047;-61
2021/05/29 01:00:21;;;;;;;5.10;2.05;;;20.00;47.20;;;;;;5093908;28;20547;-61
2021/05/29 01:02:48;;;;;;;4.10;1.88;;;20.00;47.20;;;;;;5093746;28;20016;-61
2021/05/29 01:05:18;;;;;;;3.58;1.73;;;20.00;47.20;;;;;;5093930;28;20031;-61
2021/05/29 01:07:47;;;;;;;3.58;1.70;;;19.90;47.30;;;;;;5093856;28;20024;-61
2021/05/29 01:10:14;;;;;;;4.20;2.03;;;20.00;47.30;;;;;;5093996;28;20054;-62
2021/05/29 01:12:39;;;;;;;3.58;1.73;;;20.00;47.30;;;;;;5093751;28;20024;-61
2021/05/29 01:15:07;;;;;;;2.92;1.58;;;19.90;47.30;;;;;;5094019;28;20503;-61
2021/05/29 01:17:33;;;;;;;3.72;1.90;;;19.90;47.30;;;;;;5093781;28;20020;-61
2021/05/29 01:19:59;;;;;;;3.50;1.73;;;19.90;47.30;;;;;;5093791;28;20047;-61
2021/05/29 01:22:52;;;;;;;3.42;1.70;;;19.90;47.40;;;;;;5093902;28;20036;-61
2021/05/29 01:25:29;;;;;;;3.05;1.50;;;19.90;47.40;;;;;;5093671;28;20028;-61
2021/05/29 01:28:03;;;;;;;3.67;1.67;;;19.80;47.40;;;;;;5093660;28;20425;-61
2021/05/29 01:30:31;;;;;;;3.92;1.80;;;19.80;47.40;;;;;;5093868;28;20035;-61
2021/05/29 01:32:58;;;;;;;5.40;2.05;;;19.80;47.40;;;;;;5093650;28;20062;-61
2021/05/29 01:35:24;;;;;;;3.50;1.70;;;19.80;47.40;;;;;;5093768;28;20035;-61
2021/05/29 01:37:52;;;;;;;4.05;1.60;;;19.80;47.50;;;;;;5093394;28;20024;-62
2021/05/29 01:40:18;;;;;;;3.28;1.63;;;19.80;47.50;;;;;;5093375;28;20495;-62
2021/05/29 01:42:44;;;;;;;4.00;1.85;;;19.80;47.50;;;;;;5093381;28;20032;-62
2021/05/29 01:45:10;;;;;;;3.33;1.58;;;19.70;47.40;;;;;;5093884;28;20074;-62
2021/05/29 01:47:42;;;;;;;3.45;1.85;;;19.80;47.50;;;;;;5093651;28;20473;-61
2021/05/29 01:50:09;;;;;;;4.30;1.88;;;19.70;47.50;;;;;;5093924;28;20090;-61
2021/05/29 01:52:44;;;;;;;3.30;1.55;;;19.70;47.50;;;;;;5093469;28;20108;-61
2021/05/29 01:55:09;;;;;;;3.63;1.77;;;19.70;47.50;;;;;;5092191;28;20027;-61
2021/05/29 01:57:35;;;;;;;3.78;1.83;;;19.70;47.50;;;;;;5094014;28;20021;-61
2021/05/29 02:00:00;;;;;;;4.05;1.73;;;19.70;47.60;;;;;;5096589;28;20055;-62
2021/05/29 02:02:26;;;;;;;2.42;1.45;;;19.70;47.50;;;;;;5103219;28;20021;-63
2021/05/29 02:04:52;;;;;;;3.22;1.80;;;19.60;47.60;;;;;;5104462;28;20024;-62
2021/05/29 02:07:17;;;;;;;3.72;1.75;;;19.60;47.60;;;;;;5105125;28;20035;-62
2021/05/29 02:09:43;;;;;;;3.80;1.75;;;19.60;47.60;;;;;;5106238;28;20095;-61
2021/05/29 02:12:09;;;;;;;3.80;1.50;;;19.60;47.60;;;;;;5103600;28;20020;-62
2021/05/29 02:14:35;;;;;;;3.72;1.67;;;19.60;47.60;;;;;;5104217;28;20092;-61
2021/05/29 02:17:01;;;;;;;3.70;1.77;;;19.60;47.60;;;;;;5100148;28;20024;-61
2021/05/29 02:19:26;;;;;;;4.13;1.70;;;19.60;47.60;;;;;;5093446;28;20016;-61
2021/05/29 02:21:52;;;;;;;5.53;2.10;;;19.60;47.60;;;;;;5092832;28;20024;-61
2021/05/29 02:24:17;;;;;;;3.63;1.88;;;19.50;47.70;;;;;;5092913;28;20024;-61
2021/05/29 02:26:43;;;;;;;4.50;1.75;;;19.50;47.70;;;;;;5093169;28;20020;-61
2021/05/29 02:29:08;;;;;;;3.75;2.08;;;19.50;47.70;;;;;;5092811;28;20357;-62
2021/05/29 02:31:34;;;;;;;3.55;1.67;;;19.50;47.60;;;;;;5093347;28;20058;-62
2021/05/29 02:33:59;;;;;;;3.63;1.75;;;19.50;47.70;;;;;;5093356;28;20020;-62
2021/05/29 02:36:25;;;;;;;4.18;2.00;;;19.50;47.70;;;;;;5093333;28;20066;-63
2021/05/29 02:38:50;;;;;;;3.42;1.75;;;19.50;47.60;;;;;;5091338;28;20090;-62
2021/05/29 02:41:16;;;;;;;3.20;1.60;;;19.50;47.70;;;;;;5093060;28;20017;-62
2021/05/29 02:43:42;;;;;;;3.17;1.52;;;19.50;47.70;;;;;;5092995;28;20024;-62
2021/05/29 02:46:09;;;;;;;3.58;1.60;;;19.50;47.70;;;;;;5093165;28;20023;-61
2021/05/29 02:48:35;;;;;;;3.03;1.70;;;19.50;47.70;;;;;;5093017;28;20035;-62
2021/05/29 02:51:00;;;;;;;3.50;1.60;;;19.50;47.70;;;;;;5093085;28;20028;-63
2021/05/29 02:53:26;;;;;;;2.85;1.63;;;19.50;47.70;;;;;;5092860;28;20016;-63
2021/05/29 02:55:51;;;;;;;3.42;1.83;;;19.50;47.70;;;;;;5095111;28;20043;-63
2021/05/29 02:58:17;;;;;;;2.95;1.52;;;19.40;47.70;;;;;;5096197;28;20024;-63
2021/05/29 03:00:45;;;;;;;4.15;1.80;;;19.40;47.70;;;;;;5096382;28;20028;-61
2021/05/29 03:03:11;;;;;;;3.25;1.75;;;19.40;47.70;;;;;;5095272;28;20043;-62
2021/05/29 03:05:42;;;;;;;3.10;1.63;;;19.40;47.70;;;;;;5096231;28;20480;-62
2021/05/29 03:08:08;;;;;;;3.72;1.80;;;19.40;47.70;;;;;;5096488;28;20510;-63
2021/05/29 03:10:34;;;;;;;3.33;1.52;;;19.40;47.70;;;;;;5096549;28;20036;-63
2021/05/29 03:13:00;;;;;;;2.92;1.70;;;19.40;47.70;;;;;;5096187;28;20077;-61
2021/05/29 03:15:27;;;;;;;3.60;1.92;;;19.40;47.80;;;;;;5096302;28;20028;-61
2021/05/29 03:17:54;;;;;;;3.78;2.05;;;19.30;47.70;;;;;;5095828;28;20027;-61
2021/05/29 03:20:24;;;;;;;4.63;1.98;;;19.30;47.80;;;;;;5095849;28;20115;-61
2021/05/29 03:22:50;;;;;;;4.80;1.73;;;19.30;47.80;;;;;;5095575;28;20446;-61
2021/05/29 03:25:16;;;;;;;2.78;1.63;;;19.30;47.80;;;;;;5095762;28;20024;-61
2021/05/29 03:27:44;;;;;;;3.08;1.50;;;19.30;47.80;;;;;;5095726;28;20073;-61
2021/05/29 03:30:12;;;;;;;3.05;1.63;;;19.30;47.80;;;;;;5096145;28;20036;-61
2021/05/29 03:32:38;;;;;;;4.05;1.88;;;19.30;47.80;;;;;;5095773;28;20111;-60
2021/05/29 03:35:05;;;;;;;3.45;1.80;;;19.30;47.80;;;;;;5095624;28;20112;-62
2021/05/29 03:37:31;;;;;;;4.25;1.63;;;19.20;47.80;;;;;;5096109;28;20055;-62
2021/05/29 03:39:57;;;;;;;3.50;1.70;;;19.20;47.80;;;;;;5095431;28;20475;-60
2021/05/29 03:42:22;;;;;;;2.83;1.58;;;19.20;47.80;;;;;;5095765;28;20063;-64
2021/05/29 03:44:48;;;;;;;4.57;2.03;;;19.20;47.80;;;;;;5095581;28;20099;-61
2021/05/29 03:47:13;;;;;;;3.72;1.90;;;19.20;47.80;;;;;;5095417;28;20016;-61
2021/05/29 03:49:39;;;;;;;3.28;1.52;;;19.20;47.80;;;;;;5095516;28;20502;-61
2021/05/29 03:52:05;;;;;;;4.38;1.90;;;19.20;47.80;;;;;;5095485;28;20016;-61
2021/05/29 03:54:30;;;;;;;3.42;1.75;;;19.20;47.80;;;;;;5095541;28;20476;-61
2021/05/29 03:56:56;;;;;;;3.60;1.73;;;19.20;47.80;;;;;;5095435;28;20035;-62
2021/05/29 03:59:21;;;;;;;3.45;1.70;;;19.20;47.80;;;;;;5095080;28;20119;-61
2021/05/29 04:01:47;;;;;;;5.00;2.00;;;19.20;47.80;;;;;;5095393;28;20571;-61
2021/05/29 04:04:13;;;;;;;3.75;1.92;;;19.10;47.90;;;;;;5095010;28;20016;-63
2021/05/29 04:06:38;;;;;;;3.85;1.80;;;19.10;47.90;;;;;;5094828;28;20066;-62
2021/05/29 04:09:06;;;;;;;3.45;1.65;;;19.10;47.90;;;;;;5094982;28;20499;-63
2021/05/29 04:11:32;;;;;;;3.28;1.75;;;19.20;47.90;;;;;;5095033;28;20031;-62
2021/05/29 04:13:58;;;;;;;4.13;1.80;;;19.10;47.90;;;;;;5095218;28;20035;-63
2021/05/29 04:16:24;;;;;;;3.53;1.77;;;19.10;47.90;;;;;;5095088;28;20102;-63
2021/05/29 04:18:50;;;;;;;3.25;1.80;;;19.10;47.90;;;;;;5094538;28;20477;-62
2021/05/29 04:21:15;;;;;;;3.47;1.80;;;19.10;47.90;;;;;;5095112;28;20110;-61
2021/05/29 04:23:42;;;;;;;3.33;1.85;;;19.10;47.90;;;;;;5094508;28;20459;-61
2021/05/29 04:26:08;;;;;;;4.18;1.80;;;19.00;47.90;;;;;;5094682;28;20032;-61
2021/05/29 04:28:34;;;;;;;3.60;1.80;;;19.10;47.90;;;;;;5094893;28;20031;-61
2021/05/29 04:31:00;;;;;;;3.53;1.67;;;19.00;48.00;;;;;;5094746;28;20028;-61
2021/05/29 04:33:26;;;;;;;4.18;1.75;;;19.00;48.00;;;;;;5094787;28;20142;-61
2021/05/29 04:35:51;;;;;;;3.97;1.60;;;19.00;47.90;;;;;;5094456;28;20035;-61
2021/05/29 04:38:17;;;;;;;3.70;1.85;;;19.00;47.90;;;;;;5094684;28;20028;-61
2021/05/29 04:40:42;;;;;;;4.13;1.58;;;19.00;47.90;;;;;;5094448;28;20460;-61
2021/05/29 04:43:08;;;;;;;5.15;2.05;;;19.00;47.90;;;;;;5094520;28;20036;-61
2021/05/29 04:45:33;;;;;;;3.72;2.03;;;19.00;48.00;;;;;;5094461;28;20107;-61
2021/05/29 04:47:59;;;;;;;4.60;1.90;;;19.00;48.00;;;;;;5094172;28;20063;-61
2021/05/29 04:50:25;;;;;;;4.90;2.17;;;19.00;48.00;;;;;;5094309;28;20046;-61
2021/05/29 04:52:50;;;;;;;3.67;1.80;;;19.00;48.00;;;;;;5094285;28;20028;-62
2021/05/29 04:55:17;;;;;;;3.17;1.60;;;19.00;47.90;;;;;;5094298;28;20031;-62
2021/05/29 04:57:43;;;;;;;3.53;1.70;;;19.00;48.00;;;;;;5094630;28;20035;-62
2021/05/29 05:00:13;;;;;;;4.32;1.85;;;19.00;48.00;;;;;;5094284;28;20031;-62
2021/05/29 05:02:39;;;;;;;3.28;1.70;;;19.00;48.00;;;;;;5093971;28;20020;-62
2021/05/29 05:05:05;;;;;;;3.85;1.83;;;19.00;47.90;;;;;;5094143;28;20024;-63
2021/05/29 05:07:31;;;;;;;4.05;1.63;;;19.00;47.90;;;;;;5094237;28;20166;-62
2021/05/29 05:09:57;;;;;;;4.55;1.73;;;19.00;47.90;;;;;;5094099;28;20087;-62
2021/05/29 05:12:22;;;;;;;2.88;1.55;;;19.00;47.90;;;;;;5093903;28;20035;-62
2021/05/29 05:14:48;;;;;;;3.15;1.60;;;19.00;47.90;;;;;;5093864;28;20379;-62
2021/05/29 05:17:13;;;;;;;3.10;1.55;;;19.00;47.80;;;;;;5093558;28;20012;-62
2021/05/29 05:19:39;;;;;;;3.13;1.60;;;19.00;47.80;;;;;;5093576;28;20379;-62
2021/05/29 05:22:05;;;;;;;2.88;1.60;;;19.00;47.80;;;;;;5093220;28;20050;-62
2021/05/29 05:24:30;;;;;;;4.97;1.60;;;19.00;47.80;;;;;;5093263;28;20028;-62
2021/05/29 05:26:56;;;;;;;3.60;1.60;;;19.00;47.80;;;;;;5093581;28;20475;-62
2021/05/29 05:29:22;;;;;;;4.03;1.90;;;19.00;47.80;;;;;;5094289;28;20073;-62
2021/05/29 05:31:47;;;;;;;3.70;1.80;;;19.00;47.80;;;;;;5094380;28;20024;-62
2021/05/29 05:34:13;;;;;;;3.60;1.75;;;19.00;47.80;;;;;;5094007;28;20024;-63
2021/05/29 05:36:40;;;;;;;3.67;1.73;;;19.00;47.80;;;;;;5093739;28;20111;-62
2021/05/29 05:39:08;;;;;;;4.95;1.98;;;19.00;47.80;;;;;;5094033;28;20020;-62
2021/05/29 05:41:35;;;;;;;3.95;1.73;;;19.00;47.80;;;;;;5093663;28;20024;-62
2021/05/29 05:44:01;;;;;;;3.22;1.45;;;19.00;47.90;;;;;;5093807;28;20082;-62
2021/05/29 05:46:26;;;;;;;3.75;1.80;;;19.00;47.80;;;;;;5093282;28;20024;-62
2021/05/29 05:48:52;;;;;;;4.70;1.75;;;19.00;47.80;;;;;;5093067;28;20024;-62
2021/05/29 05:51:18;;;;;;;3.53;1.58;;;19.00;47.90;;;;;;5093251;28;20027;-62
2021/05/29 05:53:44;;;;;;;3.90;1.92;;;19.00;47.90;;;;;;5093604;28;20027;-62
2021/05/29 05:56:09;;;;;;;3.10;1.60;;;19.00;48.00;;;;;;5093562;28;20063;-62
2021/05/29 05:58:38;;;;;;;2.97;1.40;;;19.00;48.00;;;;;;5093783;28;20032;-62
2021/05/29 06:01:06;;;;;;;3.38;1.80;;;19.00;47.90;;;;;;5093681;28;20482;-62
2021/05/29 06:03:32;;;;;;;4.13;1.70;;;19.00;47.90;;;;;;5093369;28;20506;-62
2021/05/29 06:05:58;;;;;;;3.80;1.70;;;19.00;48.00;;;;;;5093478;28;20434;-62
2021/05/29 06:08:23;;;;;;;3.60;1.80;;;19.00;47.90;;;;;;5093365;28;20020;-62
2021/05/29 06:10:50;;;;;;;4.45;1.92;;;19.00;47.90;;;;;;5093166;28;20202;-62
2021/05/29 06:21:13;;;;;;;4.57;1.55;;;19.00;47.90;;;;;;5093260;28;20024;-62
2021/05/29 06:23:38;;;;;;;3.00;1.60;;;19.00;47.80;;;;;;5092540;28;20040;-62
2021/05/29 06:26:04;;;;;;;3.72;1.80;;;19.10;47.80;;;;;;5092990;28;20036;-62
2021/05/29 06:28:30;;;;;;;4.28;1.70;;;19.10;47.70;;;;;;5093169;28;20028;-63
2021/05/29 06:30:55;;;;;;;4.03;1.80;;;19.10;47.70;;;;;;5096720;28;20085;-62
2021/05/29 06:33:21;;;;;;;6.25;1.83;;;19.10;47.70;;;;;;5095402;28;20085;-62
2021/05/29 06:35:46;;;;;;;5.80;1.60;;;19.10;47.70;;;;;;5096395;28;20376;-63
2021/05/29 06:38:12;;;;;;;4.28;1.67;;;19.10;47.60;;;;;;5097006;28;20020;-62
2021/05/29 06:40:38;;;;;;;3.22;1.60;;;19.10;47.70;;;;;;5096629;28;20039;-62
2021/05/29 06:43:03;;;;;;;3.63;1.73;;;19.10;47.70;;;;;;5096551;28;20024;-62
2021/05/29 06:45:31;;;;;;;3.63;1.55;;;19.10;47.70;;;;;;5096863;28;20024;-62
2021/05/29 06:47:57;;;;;;;3.25;1.55;;;19.10;47.70;;;;;;5096650;28;20070;-62
2021/05/29 06:50:23;;;;;;;4.85;2.15;;;19.10;47.70;;;;;;5096359;28;20024;-62
2021/05/29 06:52:51;;;;;;;3.58;1.40;;;19.10;47.70;;;;;;5096609;28;20020;-62
2021/05/29 07:00:45;;;;;;;3.13;1.52;;;19.10;47.70;;;;;;5096457;28;20058;-62
2021/05/29 07:03:11;;;;;;;3.45;1.55;;;19.10;47.90;;;;;;5096284;28;20491;-62
2021/05/29 07:05:37;;;;;;;3.78;1.98;;;19.10;47.90;;;;;;5096130;28;20055;-62
2021/05/29 07:08:02;;;;;;;2.67;1.50;;;19.10;47.80;;;;;;5096229;28;20372;-62
2021/05/29 07:10:28;;;;;;;4.18;1.70;;;19.20;47.60;;;;;;5096190;28;20036;-62
2021/05/29 07:12:54;;;;;;;3.00;1.58;;;19.20;47.60;;;;;;5096388;28;20081;-63
2021/05/29 07:15:19;;;;;;;3.30;1.52;;;19.20;47.50;;;;;;5096139;28;20053;-63
2021/05/29 07:17:47;;;;;;;4.20;1.75;;;19.20;47.60;;;;;;5096177;28;20375;-62
2021/05/29 07:20:13;;;;;;;3.92;1.70;;;19.20;47.60;;;;;;5096086;28;20365;-63
2021/05/29 07:22:39;;;;;;;3.15;1.63;;;19.30;47.40;;;;;;5095734;28;20123;-62
2021/05/29 07:25:06;;;;;;;3.53;1.73;;;19.30;47.40;;;;;;5095863;28;20115;-61
2021/05/29 07:27:31;;;;;;;3.00;1.73;;;19.30;47.40;;;;;;5096120;28;20097;-63
2021/05/29 07:29:58;;;;;;;4.75;1.95;;;19.40;47.40;;;;;;5095654;28;20035;-62
2021/05/29 07:32:24;;;;;;;4.78;1.80;;;19.30;47.30;;;;;;5095329;28;20388;-62
2021/05/29 07:34:51;;;;;;;4.55;1.92;;;19.40;47.30;;;;;;5095625;28;20111;-62
2021/05/29 07:37:16;;;;;;;4.75;1.90;;;19.40;47.40;;;;;;5095864;28;20012;-63
2021/05/29 07:39:42;;;;;;;3.08;1.60;;;19.30;47.50;;;;;;5095842;28;20020;-63
2021/05/29 07:42:07;;;;;;;3.42;1.90;;;19.30;47.50;;;;;;5095092;28;20028;-62
2021/05/29 07:44:33;;;;;;;4.22;1.80;;;19.40;47.40;;;;;;5095594;28;20400;-62
2021/05/29 07:46:59;;;;;;;6.03;2.05;;;19.30;47.50;;;;;;5095419;28;20077;-62
2021/05/29 07:49:24;;;;;;;3.67;1.77;;;19.30;47.50;;;;;;5094950;28;20092;-62
2021/05/29 07:51:50;;;;;;;3.30;1.50;;;19.30;47.50;;;;;;5095252;28;20030;-62
2021/05/29 07:54:16;;;;;;;3.92;1.55;;;19.40;47.50;;;;;;5093850;28;20016;-62
2021/05/29 07:56:41;;;;;;;4.10;2.00;;;19.40;47.40;;;;;;5095468;28;20024;-62
2021/05/29 07:59:10;;;;;;;3.90;1.60;;;19.40;47.40;;;;;;5095170;28;20027;-63
2021/05/29 08:01:36;;;;;;;2.83;1.48;;;19.40;47.60;;;;;;5095166;28;20103;-63
2021/05/29 08:04:02;;;;;;;4.20;2.10;;;19.30;47.60;;;;;;5095318;28;20464;-63
2021/05/29 08:06:28;;;;;;;5.40;1.70;;;19.30;47.50;;;;;;5095277;28;20035;-63
2021/05/29 08:08:53;;;;;;;4.22;1.77;;;19.40;47.50;;;;;;5094586;28;20016;-63
2021/05/29 08:11:22;;;;;;;3.33;1.90;;;19.50;47.30;;;;;;5095140;28;20024;-62
2021/05/29 08:13:51;;;;;;;5.28;1.88;;;19.40;47.40;;;;;;5094942;28;20024;-62
2021/05/29 08:16:19;;;;;;;2.95;1.40;;;19.50;47.40;;;;;;5095116;28;20028;-62
2021/05/29 08:18:44;;;;;;;3.88;1.67;;;19.40;47.40;;;;;;5095073;28;20084;-61
2021/05/29 08:21:11;;;;;;;4.28;2.10;;;19.40;47.50;;;;;;5095011;28;20030;-61
2021/05/29 08:23:38;;;;;;;3.30;1.73;;;19.40;47.50;;;;;;5095012;28;20040;-63
2021/05/29 08:26:04;;;;;;;3.20;1.40;;;19.40;47.60;;;;;;5095417;28;20020;-62
2021/05/29 08:28:30;;;;;;;5.03;1.80;;;19.40;47.50;;;;;;5095154;28;20023;-61
2021/05/29 08:30:56;;;;;;;3.45;1.75;;;19.50;47.40;;;;;;5095173;28;20036;-62
2021/05/29 08:33:22;;;;;;;4.60;1.52;;;19.50;47.40;;;;;;5098680;28;20107;-64
2021/05/29 08:35:48;;;;;;;4.00;1.88;;;19.40;47.50;;;;;;5105100;28;20024;-63
2021/05/29 08:38:14;;;;;;;5.75;1.77;;;19.50;47.40;;;;;;5105195;28;20024;-63
2021/05/29 08:40:39;;;;;;;4.47;2.00;;;19.50;47.40;;;;;;5104929;28;20059;-63
2021/05/29 08:43:05;;;;;;;3.50;1.80;;;19.50;47.40;;;;;;5106146;28;20054;-62
2021/05/29 08:45:31;;;;;;;4.03;1.70;;;19.50;47.40;;;;;;5104025;28;20055;-62
2021/05/29 08:48:00;;;;;;;4.07;1.75;;;19.40;47.40;;;;;;5104976;28;20094;-62
2021/05/29 08:50:26;;;;;;;3.15;1.65;;;19.50;47.40;;;;;;5103900;28;20040;-63
2021/05/29 08:52:52;;;;;;;3.90;1.52;;;19.50;47.40;;;;;;5093168;28;20418;-62
2021/05/29 08:55:19;;;;;;;4.28;2.38;;;19.50;47.40;;;;;;5094659;28;20068;-62
2021/05/29 08:57:48;;;;;;;3.47;1.70;;;19.50;47.40;;;;;;5093917;28;20372;-62
2021/05/29 09:00:17;;;;;;;2.70;1.50;;;19.50;47.40;;;;;;5093787;28;20024;-62
2021/05/29 09:02:59;;;;;;;3.85;1.50;;;19.50;47.40;;;;;;5093650;28;20026;-62
2021/05/29 09:05:51;;;;;;;3.50;1.60;;;19.50;47.50;;;;;;5094007;28;20024;-62
2021/05/29 09:08:21;;;;;;;3.38;1.83;;;19.50;47.50;;;;;;5093965;28;20035;-62
2021/05/29 09:10:55;;;;;;;2.83;1.70;;;19.50;47.40;;;;;;5093806;28;20036;-62
2021/05/29 09:13:25;;;;;;;5.30;2.08;;;19.50;47.30;;;;;;5093776;28;20111;-62
2021/05/29 09:15:57;;;;;;;4.97;1.92;;;19.50;47.30;;;;;;5093583;28;20020;-62
2021/05/29 09:18:40;;;;;;;3.60;1.75;;;19.50;47.40;;;;;;5093500;28;20024;-62
2021/05/29 09:21:16;;;;;;;3.28;1.60;;;19.50;47.40;;;;;;5093378;28;20480;-62
2021/05/29 09:23:50;;;;;;;3.80;1.70;;;19.50;47.40;;;;;;5093312;28;20055;-62
2021/05/29 09:26:16;;;;;;;4.43;1.88;;;19.60;47.30;;;;;;5093762;28;20028;-62
2021/05/29 09:28:43;;;;;;;4.00;1.85;;;19.60;47.30;;;;;;5093277;28;20496;-62
2021/05/29 09:31:13;;;;;;;4.20;1.90;;;19.50;47.30;;;;;;5093640;28;20039;-63
2021/05/29 09:33:40;;;;;;;3.47;1.58;;;19.60;47.30;;;;;;5093626;28;20076;-62
2021/05/29 09:36:10;;;;;;;3.60;1.58;;;19.50;47.30;;;;;;5093452;28;20020;-63
2021/05/29 09:38:37;;;;;;;4.57;1.88;;;19.60;47.20;;;;;;5092991;28;20032;-63
2021/05/29 09:41:03;;;;;;;4.13;1.80;;;19.60;47.20;;;;;;5092804;28;20016;-63
2021/05/29 09:43:29;;;;;;;2.97;1.70;;;19.60;47.30;;;;;;5092915;28;20028;-63
2021/05/29 09:46:00;;;;;;;4.45;1.58;;;19.60;47.30;;;;;;5092680;28;20035;-63
2021/05/29 09:48:26;;;;;;;5.28;1.90;;;19.60;47.20;;;;;;5092770;28;20042;-63
2021/05/29 09:50:58;;;;;;;3.65;1.73;;;19.60;47.20;;;;;;5092776;28;20395;-62
2021/05/29 09:53:26;;;;;;;2.03;1.27;;;19.60;47.30;;;;;;5092851;28;20028;-62
2021/05/29 09:55:52;;;;;;;3.53;1.73;;;19.70;47.20;;;;;;5092761;28;20024;-63
2021/05/29 09:58:17;;;;;;;4.97;1.95;;;19.70;47.10;;;;;;5092694;28;20093;-63
2021/05/29 10:00:50;;;;;;;3.67;1.67;;;19.70;47.10;;;;;;5092567;28;20052;-63
2021/05/29 10:03:16;;;;;;;2.33;1.40;;;19.70;47.10;;;;;;5092838;28;20060;-62
2021/05/29 10:05:43;;;;;;;3.38;1.70;;;19.70;47.10;;;;;;5096521;28;20061;-63
2021/05/29 10:08:13;;;;;;;3.33;1.70;;;19.70;47.20;;;;;;5096768;28;20028;-63
2021/05/29 10:10:39;;;;;;;2.42;1.40;;;19.70;47.20;;;;;;5096949;28;20120;-63
2021/05/29 10:13:05;;;;;;;3.58;1.83;;;19.70;47.20;;;;;;5096645;28;20051;-63
2021/05/29 10:15:30;;;;;;;3.95;1.60;;;19.70;47.20;;;;;;5096691;28;20024;-63
2021/05/29 10:17:57;;;;;;;3.60;1.60;;;19.70;47.10;;;;;;5096531;28;20027;-63
2021/05/29 10:20:23;;;;;;;4.25;1.70;;;19.70;47.10;;;;;;5096320;28;20020;-63
2021/05/29 10:22:49;;;;;;;2.97;1.40;;;19.80;47.00;;;;;;5096304;28;20056;-63
2021/05/29 10:25:18;;;;;;;3.85;1.70;;;19.80;46.90;;;;;;5096396;28;20035;-63
2021/05/29 10:27:53;;;;;;;3.75;1.50;;;19.90;47.00;;;;;;5096301;28;20020;-62
2021/05/29 10:30:20;;;;;;;2.97;1.55;;;19.80;47.00;;;;;;5096781;28;20424;-62
2021/05/29 10:33:10;;;;;;;3.35;1.67;;;19.80;46.90;;;;;;5097050;28;20383;-62
2021/05/29 10:35:38;;;;;;;2.83;1.63;;;19.90;46.90;;;;;;5096671;28;20020;-62
2021/05/29 10:38:04;;;;;;;4.30;1.90;;;19.90;46.90;;;;;;5096692;28;20024;-62
2021/05/29 10:40:34;;;;;;;3.90;1.90;;;19.90;46.90;;;;;;5096800;28;20030;-62
2021/05/29 10:43:20;;;;;;;3.28;1.50;;;19.90;46.80;;;;;;5095541;28;20024;-62
2021/05/29 10:45:51;;;;;;;3.55;1.45;;;19.90;46.90;;;;;;5096219;28;20032;-62
2021/05/29 10:48:24;;;;;;;5.53;1.80;;;19.90;46.80;;;;;;5096368;28;20464;-62
2021/05/29 10:53:46;;;;;;;3.25;1.60;;;19.90;46.90;;;;;;5096703;28;20111;-62
2021/05/29 10:56:21;;;;;;;6.32;1.95;;;19.90;46.90;;;;;;5094932;28;20148;-62
2021/05/29 10:59:10;;;;;;;3.15;1.52;;;19.90;46.80;;;;;;5096169;28;20563;-62
2021/05/29 11:01:37;;;;;;;3.58;1.55;;;20.00;46.80;;;;;;5096387;28;20027;-62
2021/05/29 11:04:18;;;;;;;2.85;1.38;;;20.00;46.70;;;;;;5096290;28;20024;-62
2021/05/29 11:06:52;;;;;;;3.88;1.70;;;20.00;46.70;;;;;;5096146;28;20070;-62
2021/05/29 11:09:30;;;;;;;2.90;1.77;;;20.00;46.80;;;;;;5096117;28;20035;-62
2021/05/29 11:12:03;;;;;;;4.15;1.83;;;20.00;46.80;;;;;;5096105;28;20383;-62
2021/05/29 11:14:48;;;;;;;4.03;1.77;;;20.00;46.90;;;;;;5094591;28;20115;-62
2021/05/29 11:17:15;;;;;;;3.78;1.42;;;20.00;46.90;;;;;;5095000;28;20016;-62
2021/05/29 11:19:42;;;;;;;3.30;1.63;;;20.00;46.80;;;;;;5095723;28;20024;-62
2021/05/29 11:22:19;;;;;;;3.08;1.77;;;20.00;46.70;;;;;;5095723;28;20484;-63
2021/05/29 11:24:59;;;;;;;2.88;1.55;;;20.10;46.60;;;;;;5095702;28;20043;-62
2021/05/29 11:27:33;;;;;;;2.92;1.52;;;20.10;46.60;;;;;;5096045;28;20024;-63
2021/05/29 11:30:09;;;;;;;;;;;20.10;46.60;;;;;;5096946;28;20028;-62
2021/05/29 11:33:12;;;;;;;4.65;1.73;;;20.10;46.50;;;;;;5095633;28;20351;-62
2021/05/29 11:35:38;;;;;;;3.80;1.48;;;20.10;46.70;;;;;;5101083;28;20028;-63
2021/05/29 11:38:14;;;;;;;3.08;1.70;;;20.00;46.70;;;;;;5102267;28;20471;-62
2021/05/29 11:40:55;;;;;;;3.22;1.40;;;20.10;46.70;;;;;;5097530;28;20024;-62
2021/05/29 11:43:44;;;;;;;2.83;1.38;;;20.20;46.50;;;;;;5095893;28;20099;-62
2021/05/29 11:46:20;;;;;;;3.03;1.42;;;20.20;46.50;;;;;;5095629;28;20016;-63
2021/05/29 11:49:04;;;;;;;2.97;1.50;;;20.20;46.50;;;;;;5095492;28;20020;-62
2021/05/29 11:51:36;;;;;;;2.72;1.40;;;20.20;46.60;;;;;;5094271;28;20036;-63
2021/05/29 11:54:22;;;;;;;2.08;1.20;;;20.20;46.70;;;;;;5095406;28;20368;-61
2021/05/29 11:56:50;;;;;;;3.20;1.77;;;20.30;46.50;;;;;;5094897;28;20036;-62
2021/05/29 11:59:20;;;;;;;3.88;1.60;;;20.30;46.40;;;;;;5095262;28;20068;-62
2021/05/29 12:01:48;;;;;;;3.13;1.55;;;20.40;46.30;;;;;;5095344;28;20017;-63
2021/05/29 12:04:18;;;;;;;1.98;1.35;;;20.40;46.20;;;;;;5095369;28;20066;-62
2021/05/29 12:07:01;;;;;;;4.10;1.63;;;20.50;46.20;;;;;;5095070;28;20168;-61
2021/05/29 12:09:42;;;;;;;3.97;1.85;;;20.40;46.30;;;;;;5093869;28;20410;-61
2021/05/29 12:12:10;;;;;;;3.22;1.65;;;20.50;46.10;;;;;;5095200;28;20439;-62
2021/05/29 12:14:38;;;;;;;3.20;1.65;;;20.50;46.00;;;;;;5094775;28;20078;-62
2021/05/29 12:17:15;;;;;;;2.63;1.30;;;20.60;46.00;;;;;;5094700;28;20091;-61
2021/05/29 12:19:45;;;;;;;3.25;1.52;;;20.60;45.90;;;;;;5094661;28;20023;-61
2021/05/29 12:22:19;;;;;;;2.92;1.73;;;20.70;45.80;;;;;;5094574;28;20044;-61
2021/05/29 12:24:58;;;;;;;2.50;1.40;;;20.70;45.80;;;;;;5094631;28;20024;-61
2021/05/29 12:27:26;;;;;;;3.03;1.50;;;20.60;46.00;;;;;;5094774;28;20258;-62
2021/05/29 12:29:59;;;;;;;3.17;1.30;;;20.70;45.90;;;;;;5094808;28;20058;-62
2021/05/29 12:32:40;;;;;;;2.92;1.52;;;20.80;45.70;;;;;;5094652;28;20024;-62
2021/05/29 12:35:09;;;;;;;3.83;1.60;;;20.90;45.70;;;;;;5094628;28;20052;-61
2021/05/29 12:37:37;;;;;;;2.67;1.50;;;20.90;45.60;;;;;;5094781;28;20028;-62
2021/05/29 12:40:11;;;;;;;3.58;1.73;;;20.80;45.80;;;;;;5094381;28;20457;-62
2021/05/29 12:42:49;;;;;;;;;;;20.80;45.90;;;;;;5094816;28;20111;-61
2021/05/29 12:45:29;;;;;;;3.13;1.48;;;20.80;45.80;;;;;;5094225;28;19904;-61
2021/05/29 12:48:00;;;;;;;3.42;1.60;;;20.90;45.60;;;;;;5094385;28;20026;-62
2021/05/29 12:50:38;;;;;;;3.90;1.65;;;21.00;45.60;;;;;;5094507;28;20039;-62
2021/05/29 12:53:15;;;;;;;2.75;1.25;;;21.00;45.50;;;;;;5093207;28;20024;-61
2021/05/29 12:55:42;;;;;;;2.72;1.50;;;21.10;45.40;;;;;;5094258;28;20495;-61
2021/05/29 12:58:19;;;;;;;3.13;1.60;;;21.20;45.20;;;;;;5094238;28;20043;-61
2021/05/29 13:01:54;;;;;;;2.65;1.38;;;21.30;45.10;;;;;;5094056;28;20074;-62
2021/05/29 13:09:45;;;;;;;2.75;1.35;;;21.20;45.20;;;;;;5094568;28;20078;-62
2021/05/29 13:12:13;;;;;;;2.40;1.20;;;21.30;45.10;;;;;;5094180;28;20388;-62
2021/05/29 13:14:40;;;;;;;2.10;1.27;;;21.40;45.00;;;;;;5094881;28;20016;-62
2021/05/29 13:17:07;;;;;;;3.08;1.40;;;21.40;45.00;;;;;;5099862;28;20055;-63